Time;durP1;ratioP1;P1;durP2;ratioP2;P2;SDS_P1;SDS_P2;PMS_P1;PMS_P2;Temp;Humidity;BMP_temperature;BMP_pressure;BME280_temperature;BME280_humidity;BME280_pressure;Samples;Min_cycle;Max_cycle;Signal;HPM_P1;HPM_P2
2022/06/19 00:00:49;;;;;;;6.40;1.50;;;22.60;56.30;;;;;;5106438;28;20141;-64
2022/06/19 00:03:22;;;;;;;4.22;1.50;;;22.60;56.30;;;;;;5105749;28;20071;-64
2022/06/19 00:05:48;;;;;;;7.43;1.65;;;22.60;56.30;;;;;;5106839;28;20028;-66
2022/06/19 00:08:13;;;;;;;4.47;1.30;;;22.60;56.30;;;;;;5095356;28;20043;-64
2022/06/19 00:10:39;;;;;;;6.72;2.13;;;22.60;56.30;;;;;;5104739;28;20036;-64
2022/06/19 00:13:05;;;;;;;5.88;1.50;;;22.60;56.30;;;;;;5106748;28;20503;-65
2022/06/19 00:15:30;;;;;;;8.70;1.55;;;22.60;56.40;;;;;;5087102;28;20089;-65
2022/06/19 00:17:56;;;;;;;5.30;1.45;;;22.60;56.30;;;;;;5106994;28;20093;-63
2022/06/19 00:20:21;;;;;;;5.50;1.40;;;22.60;56.40;;;;;;5105574;28;20039;-64
2022/06/19 00:22:47;;;;;;;6.15;1.50;;;22.60;56.30;;;;;;5106387;28;20354;-64
2022/06/19 00:25:13;;;;;;;5.15;1.30;;;22.60;56.30;;;;;;5086810;28;20074;-65
2022/06/19 00:27:39;;;;;;;5.00;1.50;;;22.60;56.40;;;;;;5105545;28;20559;-64
2022/06/19 00:30:08;;;;;;;5.18;1.58;;;22.60;56.40;;;;;;5106635;28;20035;-64
2022/06/19 00:32:33;;;;;;;5.25;1.45;;;22.60;56.40;;;;;;5106081;28;20036;-64
2022/06/19 00:34:59;;;;;;;6.57;1.40;;;22.60;56.40;;;;;;5107118;28;20087;-64
2022/06/19 00:37:25;;;;;;;5.88;1.55;;;22.50;56.30;;;;;;5091067;28;20079;-65
2022/06/19 00:39:51;;;;;;;4.10;1.40;;;22.60;56.30;;;;;;5106199;28;20078;-64
2022/06/19 00:42:17;;;;;;;4.68;1.73;;;22.60;56.40;;;;;;5104382;28;20387;-64
2022/06/19 00:44:43;;;;;;;4.07;1.35;;;22.60;56.40;;;;;;5087794;28;20043;-64
2022/06/19 00:47:17;;;;;;;4.63;1.35;;;22.60;56.40;;;;;;5098100;28;20115;-64
2022/06/19 00:50:02;;;;;;;3.75;1.30;;;22.50;56.40;;;;;;5105318;28;20108;-64
2022/06/19 00:52:39;;;;;;;5.10;1.40;;;22.50;56.30;;;;;;5105956;28;20114;-64
2022/06/19 00:55:13;;;;;;;4.80;1.55;;;22.60;56.40;;;;;;5104348;28;20541;-64
2022/06/19 00:57:42;;;;;;;4.70;1.27;;;22.50;56.40;;;;;;5105544;28;20043;-64
2022/06/19 01:00:26;;;;;;;4.30;1.33;;;22.50;56.40;;;;;;5105493;28;20384;-65
2022/06/19 01:02:55;;;;;;;4.90;1.70;;;22.50;56.30;;;;;;5105495;28;20149;-64
2022/06/19 01:05:22;;;;;;;5.78;1.45;;;22.50;56.30;;;;;;5106378;28;20035;-64
2022/06/19 01:07:48;;;;;;;3.92;1.10;;;22.50;56.30;;;;;;5104922;28;20075;-66
2022/06/19 01:10:13;;;;;;;3.17;1.00;;;22.50;56.30;;;;;;5104871;28;20115;-65
2022/06/19 01:12:46;;;;;;;3.70;1.33;;;22.50;56.30;;;;;;5103963;28;20052;-65
2022/06/19 01:15:15;;;;;;;4.80;1.20;;;22.50;56.30;;;;;;5105163;28;20125;-64
2022/06/19 01:17:44;;;;;;;4.78;1.23;;;22.50;56.40;;;;;;5105424;28;20142;-65
2022/06/19 01:20:11;;;;;;;6.28;1.52;;;22.50;56.30;;;;;;5105274;28;20057;-64
2022/06/19 01:22:49;;;;;;;7.15;1.58;;;22.50;56.20;;;;;;5105591;28;20486;-65
2022/06/19 01:25:33;;;;;;;4.15;1.48;;;22.50;56.30;;;;;;5104567;28;20112;-65
2022/06/19 01:30:53;;;;;;;4.38;1.40;;;22.40;56.10;;;;;;5104921;28;20530;-64
2022/06/19 01:33:45;;;;;;;4.03;1.30;;;22.40;56.10;;;;;;5104422;28;20075;-65
2022/06/19 01:36:12;;;;;;;3.55;1.23;;;22.50;56.20;;;;;;5088646;28;20475;-65
2022/06/19 01:38:43;;;;;;;5.13;1.40;;;22.40;56.20;;;;;;5094594;28;20043;-65
2022/06/19 01:41:15;;;;;;;5.68;1.38;;;22.40;56.10;;;;;;5103758;28;20047;-64
2022/06/19 01:43:40;;;;;;;6.43;1.30;;;22.50;56.20;;;;;;5105243;28;20441;-66
2022/06/19 01:46:07;;;;;;;5.80;1.48;;;22.50;56.20;;;;;;5104184;28;20046;-65
2022/06/19 01:48:33;;;;;;;6.13;1.30;;;22.40;56.10;;;;;;5104848;28;20054;-65
2022/06/19 01:51:02;;;;;;;6.43;1.40;;;22.40;56.10;;;;;;5103466;28;20048;-66
2022/06/19 01:53:40;;;;;;;4.75;1.10;;;22.40;56.10;;;;;;5105290;28;20592;-65
2022/06/19 01:56:07;;;;;;;4.10;1.10;;;22.40;56.00;;;;;;5103551;28;20096;-65
2022/06/19 01:58:35;;;;;;;4.30;1.10;;;22.40;56.10;;;;;;5104047;28;20032;-65
2022/06/19 02:01:06;;;;;;;6.25;1.23;;;22.40;56.10;;;;;;5104627;28;20089;-65
2022/06/19 02:03:51;;;;;;;3.78;1.20;;;22.40;56.00;;;;;;5084405;28;20479;-65
2022/06/19 02:06:20;;;;;;;5.20;1.20;;;22.30;56.00;;;;;;5088513;28;20075;-65
2022/06/19 02:08:47;;;;;;;5.05;1.15;;;22.40;56.00;;;;;;5100973;28;20080;-65
2022/06/19 02:11:15;;;;;;;5.88;1.30;;;22.40;56.00;;;;;;5097897;28;20160;-65
2022/06/19 02:13:42;;;;;;;4.63;1.25;;;22.40;56.10;;;;;;5077786;28;20119;-66
2022/06/19 02:16:18;;;;;;;5.20;1.25;;;22.40;56.10;;;;;;5103634;28;20024;-66
2022/06/19 02:18:47;;;;;;;5.53;1.25;;;22.30;56.00;;;;;;5105080;28;20051;-65
2022/06/19 02:21:19;;;;;;;4.07;1.10;;;22.40;56.00;;;;;;5089197;28;20065;-65
2022/06/19 02:23:46;;;;;;;4.43;1.10;;;22.30;55.90;;;;;;5086259;28;20089;-65
2022/06/19 02:26:12;;;;;;;3.45;1.17;;;22.40;56.00;;;;;;5103259;28;20039;-65
2022/06/19 02:28:47;;;;;;;3.20;1.10;;;22.40;56.00;;;;;;5104168;28;20101;-66
2022/06/19 02:31:16;;;;;;;4.22;1.27;;;22.30;55.90;;;;;;5103977;28;20047;-66
2022/06/19 02:33:46;;;;;;;4.10;1.17;;;22.30;56.00;;;;;;5085155;28;20044;-65
2022/06/19 02:36:34;;;;;;;4.32;1.10;;;22.30;56.00;;;;;;5104347;28;20090;-66
2022/06/19 02:39:07;;;;;;;;;;;22.30;56.00;;;;;;5092645;28;20482;-65
2022/06/19 02:41:42;;;;;;;3.28;0.90;;;22.30;56.00;;;;;;5085967;28;20031;-66
2022/06/19 02:44:09;;;;;;;4.18;1.30;;;22.30;56.00;;;;;;5104316;28;20496;-66
2022/06/19 02:46:35;;;;;;;4.05;1.05;;;22.30;56.00;;;;;;5103710;28;20127;-63
2022/06/19 02:49:02;;;;;;;3.25;1.10;;;22.30;56.00;;;;;;5104589;28;20185;-65
2022/06/19 02:51:29;;;;;;;3.78;1.10;;;22.30;56.00;;;;;;5103357;28;20134;-64
2022/06/19 02:53:54;;;;;;;2.67;0.95;;;22.30;56.00;;;;;;5089634;28;20524;-63
2022/06/19 02:56:23;;;;;;;3.83;1.15;;;22.30;56.00;;;;;;5103363;28;20036;-63
2022/06/19 02:58:49;;;;;;;4.30;1.17;;;22.30;56.00;;;;;;5097266;28;20087;-64
2022/06/19 03:01:15;;;;;;;4.07;1.30;;;22.30;56.00;;;;;;5088476;28;20032;-64
2022/06/19 03:03:40;;;;;;;5.88;1.38;;;22.30;56.10;;;;;;5104133;28;20046;-65
2022/06/19 03:06:07;;;;;;;6.38;1.25;;;22.30;56.10;;;;;;5103319;28;20040;-64
2022/06/19 03:08:32;;;;;;;3.58;1.33;;;22.30;56.10;;;;;;5106502;28;20651;-65
2022/06/19 03:10:58;;;;;;;4.57;1.20;;;22.30;56.10;;;;;;5100785;28;20052;-66
2022/06/19 03:13:25;;;;;;;4.50;1.00;;;22.20;56.10;;;;;;5079490;28;20112;-64
2022/06/19 03:16:02;;;;;;;5.30;1.27;;;22.30;56.90;;;;;;5107944;28;20525;-64
2022/06/19 03:18:28;;;;;;;5.30;1.27;;;22.20;56.00;;;;;;5103231;28;20062;-65
2022/06/19 03:20:55;;;;;;;2.88;1.05;;;22.20;56.00;;;;;;5107466;28;20418;-64
2022/06/19 03:23:20;;;;;;;5.03;1.30;;;22.20;56.00;;;;;;5107490;28;20039;-64
2022/06/19 03:25:46;;;;;;;5.10;1.23;;;22.20;56.10;;;;;;5105977;28;20058;-64
2022/06/19 03:28:11;;;;;;;5.15;1.40;;;22.20;56.10;;;;;;5107008;28;20487;-64
2022/06/19 03:30:37;;;;;;;3.42;1.15;;;22.20;56.10;;;;;;5106167;28;20063;-65
2022/06/19 03:33:03;;;;;;;4.75;1.25;;;22.20;56.10;;;;;;5107411;28;20062;-66
2022/06/19 03:35:29;;;;;;;4.38;1.02;;;22.20;56.10;;;;;;5106616;28;20359;-65
2022/06/19 03:37:54;;;;;;;5.20;1.30;;;22.20;56.10;;;;;;5106008;28;20061;-65
2022/06/19 03:40:20;;;;;;;6.85;1.20;;;22.20;56.10;;;;;;5107275;28;20483;-65
2022/06/19 03:42:46;;;;;;;3.97;1.00;;;22.20;56.10;;;;;;5106531;28;20052;-64
2022/06/19 03:45:11;;;;;;;6.15;1.20;;;22.20;56.10;;;;;;5107607;28;20036;-65
2022/06/19 03:47:37;;;;;;;3.28;1.02;;;22.20;56.10;;;;;;5100365;28;20032;-64
2022/06/19 03:50:05;;;;;;;5.07;1.25;;;22.20;56.10;;;;;;5106624;28;20150;-65
2022/06/19 03:52:31;;;;;;;5.57;1.30;;;22.20;56.10;;;;;;5106522;28;20058;-65
2022/06/19 03:54:57;;;;;;;5.88;1.38;;;22.20;56.10;;;;;;5106444;28;20122;-65
2022/06/19 03:57:23;;;;;;;4.90;1.20;;;22.20;56.10;;;;;;5106544;28;20043;-65
2022/06/19 03:59:49;;;;;;;6.20;1.40;;;22.20;56.10;;;;;;5105097;28;20044;-66
2022/06/19 04:02:15;;;;;;;3.92;1.20;;;22.10;56.20;;;;;;5107122;28;20040;-64
2022/06/19 04:04:40;;;;;;;4.50;1.02;;;22.10;56.20;;;;;;5105434;28;20047;-64
2022/06/19 04:07:07;;;;;;;5.47;1.20;;;22.20;56.20;;;;;;5106868;28;20047;-64
2022/06/19 04:09:33;;;;;;;4.70;1.20;;;22.10;56.10;;;;;;5087365;28;20036;-65
2022/06/19 04:11:59;;;;;;;4.65;1.10;;;22.10;56.10;;;;;;5092234;28;20100;-65
2022/06/19 04:14:24;;;;;;;7.75;1.50;;;22.10;56.20;;;;;;5105047;28;20145;-65
2022/06/19 04:16:50;;;;;;;5.20;1.10;;;22.10;56.20;;;;;;5106618;28;20032;-65
2022/06/19 04:19:15;;;;;;;6.80;1.30;;;22.10;56.20;;;;;;5105971;28;20395;-65
2022/06/19 04:21:44;;;;;;;3.67;1.02;;;22.10;56.20;;;;;;5105703;28;20150;-65
2022/06/19 04:24:14;;;;;;;5.63;1.30;;;22.10;56.90;;;;;;5106026;28;20086;-65
2022/06/19 04:26:40;;;;;;;4.30;1.10;;;22.10;56.10;;;;;;5105070;28;20042;-64
2022/06/19 04:29:08;;;;;;;4.97;1.15;;;22.10;56.20;;;;;;5105120;28;20084;-64
2022/06/19 04:31:33;;;;;;;8.75;1.60;;;22.10;56.10;;;;;;5087169;28;20205;-65
2022/06/19 04:34:00;;;;;;;5.13;1.30;;;22.10;56.10;;;;;;5106537;28;20198;-65
2022/06/19 04:36:28;;;;;;;4.30;1.05;;;22.00;56.00;;;;;;5106302;28;20071;-65
2022/06/19 04:38:56;;;;;;;5.50;1.10;;;22.10;56.10;;;;;;5105608;28;20067;-65
2022/06/19 04:41:28;;;;;;;4.60;1.23;;;22.10;56.10;;;;;;5105142;28;20055;-65
2022/06/19 04:43:56;;;;;;;7.35;1.30;;;22.10;56.10;;;;;;5104214;28;20561;-65
2022/06/19 04:46:22;;;;;;;4.97;1.30;;;22.10;56.10;;;;;;5106508;28;20039;-64
2022/06/19 04:48:48;;;;;;;6.32;1.63;;;22.10;56.10;;;;;;5104848;28;20040;-65
2022/06/19 04:51:14;;;;;;;5.15;1.00;;;22.10;56.10;;;;;;5106742;28;20481;-64
2022/06/19 04:53:40;;;;;;;4.22;0.93;;;22.10;56.00;;;;;;5106000;28;20511;-65
2022/06/19 04:56:08;;;;;;;4.70;1.20;;;22.10;56.00;;;;;;5105131;28;20023;-65
2022/06/19 04:58:34;;;;;;;5.03;1.45;;;22.00;56.00;;;;;;5105001;28;20040;-64
2022/06/19 05:01:03;;;;;;;5.80;1.17;;;22.10;56.00;;;;;;5104166;28;20508;-65
2022/06/19 05:03:29;;;;;;;5.07;1.13;;;22.10;56.10;;;;;;5105533;28;20082;-64
2022/06/19 05:05:55;;;;;;;5.53;1.27;;;22.10;56.00;;;;;;5086257;28;20490;-64
2022/06/19 05:08:21;;;;;;;5.57;1.33;;;22.10;55.90;;;;;;5105399;28;20047;-65
2022/06/19 05:10:47;;;;;;;5.15;1.02;;;22.10;55.90;;;;;;5101060;28;20076;-65
2022/06/19 05:13:18;;;;;;;4.30;1.27;;;22.10;55.90;;;;;;5094625;28;20150;-64
2022/06/19 05:15:48;;;;;;;7.55;1.33;;;22.10;55.90;;;;;;5105481;28;20044;-64
2022/06/19 05:18:14;;;;;;;3.90;1.45;;;22.10;55.90;;;;;;5104416;28;20042;-64
2022/06/19 05:20:40;;;;;;;4.90;1.35;;;22.10;55.90;;;;;;5106055;28;20321;-64
2022/06/19 05:23:07;;;;;;;4.68;1.23;;;22.10;56.00;;;;;;5104396;28;20142;-65
2022/06/19 05:25:33;;;;;;;4.18;1.02;;;22.10;56.00;;;;;;5103716;28;20527;-64
2022/06/19 05:27:58;;;;;;;5.35;1.20;;;22.10;56.00;;;;;;5103704;28;20055;-64
2022/06/19 05:30:24;;;;;;;3.22;1.10;;;22.10;56.10;;;;;;5105190;28;20070;-65
2022/06/19 05:32:49;;;;;;;4.65;1.25;;;22.10;56.10;;;;;;5105667;28;20040;-64
2022/06/19 05:35:15;;;;;;;3.72;1.10;;;22.10;56.00;;;;;;5104623;28;20058;-64
2022/06/19 05:37:41;;;;;;;6.82;1.40;;;22.10;56.10;;;;;;5105860;28;20119;-64
2022/06/19 05:40:07;;;;;;;6.78;1.33;;;22.10;56.10;;;;;;5103491;28;20047;-64
2022/06/19 05:42:33;;;;;;;5.07;1.25;;;22.10;56.10;;;;;;5105718;28;20067;-64
2022/06/19 05:45:02;;;;;;;3.88;1.17;;;22.10;56.10;;;;;;5103882;28;20058;-64
2022/06/19 05:47:27;;;;;;;3.63;1.15;;;22.10;56.10;;;;;;5105337;28;20510;-64
2022/06/19 05:49:53;;;;;;;4.70;1.35;;;22.10;56.10;;;;;;5104950;28;20042;-63
2022/06/19 05:52:24;;;;;;;4.55;1.20;;;22.10;56.10;;;;;;5105452;28;20182;-63
2022/06/19 05:54:53;;;;;;;3.70;1.10;;;22.10;56.10;;;;;;5104684;28;20135;-64
2022/06/19 05:57:20;;;;;;;3.10;1.00;;;22.10;56.10;;;;;;5104027;28;20036;-65
2022/06/19 05:59:46;;;;;;;5.10;1.27;;;22.00;56.10;;;;;;5103473;28;20123;-64
2022/06/19 06:02:16;;;;;;;4.18;1.20;;;22.00;56.10;;;;;;5103698;28;20130;-65
2022/06/19 06:04:42;;;;;;;6.57;1.52;;;22.00;56.10;;;;;;5104751;28;20537;-65
2022/06/19 06:07:08;;;;;;;4.18;1.00;;;22.10;56.20;;;;;;5120311;28;20144;-64
2022/06/19 06:09:35;;;;;;;3.65;0.95;;;22.00;56.10;;;;;;5103254;28;20032;-63
2022/06/19 06:12:02;;;;;;;3.65;1.00;;;22.00;56.10;;;;;;5089550;28;20467;-64
2022/06/19 06:14:28;;;;;;;4.82;1.13;;;22.00;56.10;;;;;;5102876;28;20039;-64
2022/06/19 06:16:53;;;;;;;5.15;1.38;;;22.00;56.10;;;;;;5099563;28;20757;-64
2022/06/19 06:19:19;;;;;;;3.20;1.10;;;22.00;56.10;;;;;;5102949;28;20173;-65
2022/06/19 06:21:44;;;;;;;5.43;1.30;;;22.00;56.20;;;;;;5104916;28;20047;-64
2022/06/19 06:24:13;;;;;;;3.88;1.00;;;22.00;56.20;;;;;;5103867;28;20051;-64
2022/06/19 06:26:39;;;;;;;4.55;0.90;;;22.00;56.20;;;;;;5104274;28;20054;-64
2022/06/19 06:29:04;;;;;;;4.53;1.10;;;22.00;56.20;;;;;;5104278;28;20760;-64
2022/06/19 06:31:30;;;;;;;3.22;1.00;;;22.00;56.20;;;;;;5104061;28;20051;-64
2022/06/19 06:33:56;;;;;;;4.43;1.00;;;22.00;56.30;;;;;;5104868;28;20040;-65
2022/06/19 06:36:23;;;;;;;5.63;1.15;;;22.00;56.20;;;;;;5106422;28;20072;-64
2022/06/19 06:38:49;;;;;;;5.07;1.38;;;22.00;56.20;;;;;;5108294;28;20363;-64
2022/06/19 06:41:14;;;;;;;3.80;0.82;;;22.00;56.20;;;;;;5106300;28;20043;-64
2022/06/19 06:43:44;;;;;;;3.17;1.10;;;22.00;56.20;;;;;;5107632;28;20506;-66
2022/06/19 06:46:21;;;;;;;4.75;1.10;;;22.00;56.30;;;;;;5107853;28;20052;-66
2022/06/19 06:48:48;;;;;;;4.75;1.13;;;22.00;56.20;;;;;;5082065;28;20044;-65
2022/06/19 06:51:18;;;;;;;2.92;0.95;;;22.00;56.20;;;;;;5108396;28;20047;-65
2022/06/19 06:53:44;;;;;;;4.10;0.90;;;22.00;56.20;;;;;;5107450;28;20130;-65
2022/06/19 06:56:11;;;;;;;3.25;1.05;;;22.00;56.20;;;;;;5108109;28;20043;-66
2022/06/19 06:58:38;;;;;;;2.63;0.85;;;22.00;56.30;;;;;;5087940;28;20036;-66
2022/06/19 07:01:15;;;;;;;3.30;1.03;;;22.00;56.20;;;;;;5107588;28;20126;-65
2022/06/19 07:03:42;;;;;;;2.97;1.00;;;22.00;56.20;;;;;;5108026;28;20398;-66
2022/06/19 07:06:08;;;;;;;5.38;1.40;;;22.00;56.20;;;;;;5107065;28;20122;-66
2022/06/19 07:08:34;;;;;;;4.75;1.00;;;22.00;56.30;;;;;;5108447;28;20597;-66
2022/06/19 07:10:59;;;;;;;3.75;0.95;;;22.00;56.30;;;;;;5100696;28;20040;-66
2022/06/19 07:13:25;;;;;;;4.20;1.10;;;22.00;56.30;;;;;;5099579;28;20052;-65
2022/06/19 07:15:51;;;;;;;4.97;1.13;;;22.00;56.30;;;;;;5107219;28;20204;-66
2022/06/19 07:18:18;;;;;;;4.60;1.10;;;22.00;56.30;;;;;;5108424;28;20130;-65
2022/06/19 07:20:44;;;;;;;4.82;0.90;;;22.00;56.30;;;;;;5107233;28;20169;-66
2022/06/19 07:23:10;;;;;;;4.18;1.10;;;22.00;56.30;;;;;;5088774;28;20122;-65
2022/06/19 07:25:35;;;;;;;5.78;1.20;;;22.00;56.30;;;;;;5107632;28;20368;-66
2022/06/19 07:28:01;;;;;;;2.33;0.80;;;22.00;56.30;;;;;;5105863;28;20054;-66
2022/06/19 07:30:28;;;;;;;2.60;0.95;;;21.90;56.30;;;;;;5107195;28;20054;-65
2022/06/19 07:32:55;;;;;;;4.30;1.17;;;22.00;56.40;;;;;;5106172;28;20044;-65
2022/06/19 07:35:21;;;;;;;4.72;1.20;;;22.00;56.40;;;;;;5107662;28;20048;-66
2022/06/19 07:37:46;;;;;;;4.63;1.38;;;22.00;56.40;;;;;;5105974;28;20563;-65
2022/06/19 07:40:18;;;;;;;4.63;1.00;;;22.00;56.40;;;;;;5105803;28;20163;-64
2022/06/19 07:42:44;;;;;;;5.35;1.08;;;21.90;56.30;;;;;;5107067;28;20104;-65
2022/06/19 07:45:10;;;;;;;3.78;1.08;;;22.00;56.40;;;;;;5105502;28;20203;-66
2022/06/19 07:50:24;;;;;;;4.20;0.98;;;22.00;56.50;;;;;;5093296;28;20055;-64
2022/06/19 07:52:51;;;;;;;2.95;0.85;;;22.00;57.20;;;;;;5107326;28;20059;-63
2022/06/19 07:55:25;;;;;;;4.13;1.00;;;22.00;56.50;;;;;;5106153;28;20093;-64
2022/06/19 07:57:51;;;;;;;3.42;0.90;;;21.90;56.50;;;;;;5106038;28;20435;-66
2022/06/19 08:00:24;;;;;;;4.00;1.10;;;21.90;56.50;;;;;;5121837;27;20048;-64
2022/06/19 08:02:52;;;;;;;3.63;1.10;;;22.00;56.50;;;;;;5105880;28;20412;-64
2022/06/19 08:05:22;;;;;;;3.13;1.00;;;21.90;56.40;;;;;;5107140;28;20538;-64
2022/06/19 08:07:50;;;;;;;2.92;0.88;;;21.90;56.50;;;;;;5106013;28;20048;-64
2022/06/19 08:10:22;;;;;;;3.70;1.30;;;21.90;56.50;;;;;;5105331;28;20074;-64
2022/06/19 08:12:50;;;;;;;3.70;1.17;;;21.90;56.50;;;;;;5074216;28;20051;-64
2022/06/19 08:15:16;;;;;;;4.03;1.00;;;21.90;56.50;;;;;;5105462;28;20028;-64
2022/06/19 08:17:42;;;;;;;4.97;1.15;;;21.90;56.60;;;;;;5106523;28;20369;-64
2022/06/19 08:20:09;;;;;;;4.65;1.10;;;21.90;56.60;;;;;;5104979;28;20573;-64
2022/06/19 08:22:34;;;;;;;4.35;1.05;;;21.90;56.60;;;;;;5106964;28;20040;-63
2022/06/19 08:25:00;;;;;;;2.58;0.98;;;21.90;56.60;;;;;;5104910;28;20783;-63
2022/06/19 08:27:26;;;;;;;3.72;1.20;;;21.90;56.60;;;;;;5106599;28;20036;-65
2022/06/19 08:29:51;;;;;;;5.10;1.10;;;21.90;56.60;;;;;;5105833;28;20032;-65
2022/06/19 08:32:17;;;;;;;4.18;0.80;;;21.90;56.60;;;;;;5105753;28;20047;-64
2022/06/19 08:34:42;;;;;;;4.03;1.13;;;21.90;56.60;;;;;;5106128;28;20044;-64
2022/06/19 08:37:10;;;;;;;6.05;1.38;;;21.90;56.60;;;;;;5105139;28;20100;-65
2022/06/19 08:39:37;;;;;;;3.95;0.98;;;21.90;56.60;;;;;;5105689;28;20498;-63
2022/06/19 08:42:19;;;;;;;2.28;0.70;;;21.90;56.60;;;;;;5105329;28;20056;-65
2022/06/19 08:45:04;;;;;;;4.05;0.95;;;21.90;56.60;;;;;;5106002;28;20443;-65
2022/06/19 08:47:51;;;;;;;2.92;1.20;;;21.90;56.70;;;;;;5106588;28;20043;-66
2022/06/19 08:50:38;;;;;;;7.07;1.25;;;21.90;56.60;;;;;;5092318;28;20430;-66
2022/06/19 08:53:04;;;;;;;4.38;1.00;;;21.80;56.60;;;;;;5106219;28;20061;-68
2022/06/19 08:55:59;;;;;;;4.22;1.13;;;21.90;56.60;;;;;;5104465;28;20339;-64
2022/06/19 08:58:30;;;;;;;3.38;1.10;;;21.90;56.60;;;;;;5103272;28;20161;-64
2022/06/19 09:01:13;;;;;;;4.07;1.10;;;21.90;56.60;;;;;;5105346;28;20044;-66
2022/06/19 09:07:03;;;;;;;4.78;1.20;;;21.90;56.50;;;;;;5104988;28;20136;-65
2022/06/19 09:09:50;;;;;;;5.43;1.13;;;22.00;56.50;;;;;;5105019;28;20035;-65
2022/06/19 09:12:32;;;;;;;4.18;1.00;;;22.00;56.50;;;;;;5086044;28;20533;-64
2022/06/19 09:15:18;;;;;;;6.47;1.42;;;22.00;56.50;;;;;;5105080;28;20533;-65
2022/06/19 09:18:03;;;;;;;4.13;1.10;;;22.00;56.50;;;;;;5105419;28;20134;-64
2022/06/19 09:20:40;;;;;;;4.75;1.10;;;22.00;56.50;;;;;;5118800;27;20453;-64
2022/06/19 09:23:44;;;;;;;3.17;0.98;;;22.00;56.50;;;;;;5105508;28;20051;-65
2022/06/19 09:26:27;;;;;;;4.68;1.05;;;22.00;56.50;;;;;;5103019;28;20099;-64
2022/06/19 09:29:09;;;;;;;3.38;1.02;;;22.00;56.60;;;;;;5103878;28;20043;-65
2022/06/19 09:31:49;;;;;;;2.85;0.85;;;22.00;56.60;;;;;;5092590;28;20070;-65
2022/06/19 09:34:19;;;;;;;3.80;1.30;;;22.00;56.70;;;;;;5104200;28;20667;-64
2022/06/19 09:36:54;;;;;;;4.57;0.90;;;22.00;56.70;;;;;;5105784;28;20081;-63
2022/06/19 09:39:25;;;;;;;4.88;1.00;;;21.90;56.60;;;;;;5105064;28;20051;-64
2022/06/19 09:41:54;;;;;;;4.95;1.23;;;21.90;56.60;;;;;;5104086;28;20144;-64
2022/06/19 09:44:24;;;;;;;;;;;22.00;56.70;;;;;;5105334;28;20105;-64
2022/06/19 09:47:05;;;;;;;3.03;0.90;;;22.00;56.70;;;;;;5104284;28;20009;-64
2022/06/19 09:49:54;;;;;;;4.95;1.10;;;22.00;56.80;;;;;;5086147;28;20066;-65
2022/06/19 09:52:36;;;;;;;3.70;1.10;;;22.00;56.70;;;;;;5105410;28;20364;-64
2022/06/19 09:55:22;;;;;;;4.18;1.08;;;22.00;56.70;;;;;;5102911;28;20036;-65
2022/06/19 09:57:55;;;;;;;4.00;1.20;;;22.00;56.70;;;;;;5104770;28;20062;-65
2022/06/19 10:00:26;;;;;;;4.50;1.23;;;22.00;57.40;;;;;;5084234;28;20047;-65
2022/06/19 10:03:14;;;;;;;3.17;1.13;;;22.00;56.60;;;;;;5104861;28;20051;-66
2022/06/19 10:05:43;;;;;;;3.85;1.02;;;22.10;56.70;;;;;;5092760;28;20108;-64
2022/06/19 10:08:12;;;;;;;4.97;1.10;;;22.00;56.80;;;;;;5104079;28;20153;-64
2022/06/19 10:10:49;;;;;;;4.57;1.17;;;22.10;56.80;;;;;;5104243;28;20079;-65
2022/06/19 10:13:33;;;;;;;2.70;1.00;;;22.10;56.80;;;;;;5097719;28;20107;-65
2022/06/19 10:16:01;;;;;;;5.60;1.20;;;22.20;56.90;;;;;;5108857;28;20098;-65
2022/06/19 10:18:37;;;;;;;3.22;0.90;;;22.10;56.80;;;;;;5124897;27;20060;-65
2022/06/19 10:22:13;;;;;;;3.38;0.90;;;22.10;56.80;;;;;;5089549;28;20035;-63
2022/06/19 10:24:15;;;;;;;4.10;1.17;;;22.10;56.80;;;;;;5109016;28;20048;-65
2022/06/19 10:26:59;;;;;;;3.00;0.93;;;22.20;56.80;;;;;;5108048;28;20048;-66
2022/06/19 10:29:38;;;;;;;5.53;1.20;;;22.20;56.80;;;;;;5106176;28;20040;-65
2022/06/19 10:32:23;;;;;;;3.70;0.90;;;22.20;56.80;;;;;;5108689;28;20067;-66
2022/06/19 10:35:18;;;;;;;5.07;1.27;;;22.20;56.80;;;;;;5107484;28;20146;-65
2022/06/19 10:38:06;;;;;;;2.88;1.02;;;22.20;56.70;;;;;;5107825;28;20040;-64
2022/06/19 10:40:42;;;;;;;3.38;1.10;;;22.20;56.70;;;;;;5058032;28;20048;-67
2022/06/19 10:43:15;;;;;;;4.30;0.93;;;22.20;56.70;;;;;;5104890;28;20039;-64
2022/06/19 10:46:08;;;;;;;3.67;1.00;;;22.20;56.70;;;;;;5108933;28;20058;-64
2022/06/19 10:48:48;;;;;;;4.80;1.02;;;22.20;56.70;;;;;;5108337;28;20512;-65
2022/06/19 10:51:27;;;;;;;3.65;1.10;;;22.20;56.80;;;;;;5106779;28;20040;-66
2022/06/19 10:54:22;;;;;;;4.65;1.05;;;22.30;56.80;;;;;;5108558;28;20047;-64
2022/06/19 10:57:08;;;;;;;5.22;1.10;;;22.20;56.80;;;;;;5077532;28;20048;-64
2022/06/19 10:59:35;;;;;;;3.60;1.10;;;22.20;56.70;;;;;;5106245;28;20047;-66
2022/06/19 11:05:48;;;;;;;4.00;1.10;;;22.30;56.70;;;;;;5078159;28;20063;-64
2022/06/19 11:08:16;;;;;;;2.90;0.80;;;22.20;56.70;;;;;;5106537;28;20031;-65
2022/06/19 11:10:52;;;;;;;3.50;0.67;;;22.30;56.70;;;;;;5103750;28;20032;-65
2022/06/19 11:13:18;;;;;;;2.60;0.70;;;22.30;56.70;;;;;;5096977;28;20040;-65
2022/06/19 11:15:48;;;;;;;3.85;1.00;;;22.20;56.70;;;;;;5108150;28;20163;-64
2022/06/19 11:18:26;;;;;;;3.85;1.20;;;22.30;56.70;;;;;;5106949;28;20177;-66
2022/06/19 11:21:06;;;;;;;2.63;0.77;;;22.30;56.70;;;;;;5106440;28;20034;-65
2022/06/19 11:23:32;;;;;;;2.95;0.90;;;22.20;56.60;;;;;;5107470;28;20191;-64
2022/06/19 11:26:12;;;;;;;4.10;1.00;;;22.30;56.70;;;;;;5105867;28;20127;-65
2022/06/19 11:28:42;;;;;;;3.78;1.00;;;22.20;56.60;;;;;;5107171;28;20382;-64
2022/06/19 11:31:19;;;;;;;3.00;0.90;;;22.30;56.70;;;;;;5105989;28;20032;-64
2022/06/19 11:33:46;;;;;;;2.85;0.95;;;22.20;56.60;;;;;;5107325;28;20052;-64
2022/06/19 11:36:38;;;;;;;3.60;0.95;;;22.20;56.70;;;;;;5107248;28;20393;-65
2022/06/19 11:39:37;;;;;;;2.83;1.00;;;22.20;57.40;;;;;;5105677;28;20075;-64
2022/06/19 11:42:33;;;;;;;2.00;0.73;;;22.20;56.70;;;;;;5107035;28;20498;-64
2022/06/19 11:45:12;;;;;;;3.60;0.88;;;22.20;56.80;;;;;;5106623;28;20055;-64
2022/06/19 11:47:41;;;;;;;3.97;1.00;;;22.20;56.80;;;;;;5106256;28;20047;-64
2022/06/19 11:50:29;;;;;;;3.80;1.20;;;22.10;56.80;;;;;;5107063;28;20050;-65
2022/06/19 11:52:57;;;;;;;3.88;0.90;;;22.10;56.80;;;;;;5106635;28;20130;-65
2022/06/19 11:55:36;;;;;;;4.03;0.80;;;22.10;56.80;;;;;;5093118;28;20420;-64
2022/06/19 11:58:21;;;;;;;2.05;0.80;;;22.10;56.80;;;;;;5106604;28;20052;-65
2022/06/19 12:00:58;;;;;;;2.55;0.73;;;22.10;56.80;;;;;;5105901;28;20130;-64
2022/06/19 12:03:37;;;;;;;2.40;0.80;;;22.10;56.80;;;;;;5106850;28;20044;-64
2022/06/19 12:06:09;;;;;;;1.52;0.50;;;22.10;56.80;;;;;;5106537;28;20149;-65
2022/06/19 12:08:46;;;;;;;2.08;0.80;;;22.10;56.90;;;;;;5106279;28;20110;-64
2022/06/19 12:11:12;;;;;;;2.20;0.70;;;22.10;56.90;;;;;;5098575;28;20490;-65
2022/06/19 12:13:41;;;;;;;3.00;0.90;;;22.10;56.90;;;;;;5098944;28;20044;-65
2022/06/19 12:16:24;;;;;;;2.53;0.73;;;22.10;56.90;;;;;;5107075;28;20043;-65
2022/06/19 12:18:50;;;;;;;1.67;0.85;;;22.10;56.90;;;;;;5106647;28;20184;-65
2022/06/19 12:21:17;;;;;;;3.30;0.80;;;22.10;56.90;;;;;;5106853;28;20127;-64
2022/06/19 12:23:53;;;;;;;1.70;0.60;;;22.10;56.90;;;;;;5107129;27;20043;-64
2022/06/19 12:26:28;;;;;;;2.42;0.65;;;22.10;56.90;;;;;;5104955;28;20031;-65
2022/06/19 12:29:00;;;;;;;3.08;0.60;;;22.10;56.90;;;;;;5087678;28;20112;-64
2022/06/19 12:31:29;;;;;;;2.33;0.70;;;22.10;56.90;;;;;;5105102;28;20518;-64
2022/06/19 12:34:12;;;;;;;1.88;0.70;;;22.10;56.90;;;;;;5106491;28;20114;-64
2022/06/19 12:36:38;;;;;;;2.08;0.70;;;22.10;56.90;;;;;;5105719;28;20122;-65
2022/06/19 12:39:16;;;;;;;2.47;0.70;;;22.10;56.90;;;;;;5105082;28;20597;-64
2022/06/19 12:41:49;;;;;;;2.15;0.60;;;22.10;56.90;;;;;;5092511;28;20069;-64
2022/06/19 12:44:56;;;;;;;2.15;0.88;;;22.20;56.90;;;;;;5105168;28;20078;-64
2022/06/19 12:47:47;;;;;;;1.92;0.80;;;22.10;56.90;;;;;;5096680;28;20031;-64
2022/06/19 12:50:33;;;;;;;2.00;0.68;;;22.10;56.90;;;;;;5105524;28;20036;-64
2022/06/19 12:53:16;;;;;;;3.30;0.90;;;22.10;56.90;;;;;;5105043;28;20519;-64
2022/06/19 12:56:10;;;;;;;2.08;0.60;;;22.10;56.90;;;;;;5105321;28;20090;-65
2022/06/19 12:59:12;;;;;;;2.20;0.73;;;22.10;56.90;;;;;;5104981;28;20054;-63
2022/06/19 13:02:01;;;;;;;1.48;0.57;;;22.10;57.00;;;;;;5104936;28;20054;-64
2022/06/19 13:05:13;;;;;;;3.58;0.90;;;22.10;57.00;;;;;;5106321;28;20091;-64
2022/06/19 13:08:24;;;;;;;1.85;0.70;;;22.10;57.00;;;;;;5016414;28;20098;-65
2022/06/19 13:11:02;;;;;;;2.55;0.70;;;22.10;57.00;;;;;;5023816;28;20488;-65
2022/06/19 13:13:52;;;;;;;1.88;0.80;;;22.10;57.00;;;;;;5091395;28;21025;-65
2022/06/19 13:16:31;;;;;;;1.50;0.52;;;22.10;57.10;;;;;;5092665;28;20051;-65
2022/06/19 13:19:23;;;;;;;2.55;0.68;;;22.10;57.10;;;;;;5104366;28;20043;-65
2022/06/19 13:22:18;;;;;;;3.35;0.80;;;22.10;57.10;;;;;;5101627;28;20104;-64
2022/06/19 13:25:12;;;;;;;1.80;0.63;;;22.10;57.00;;;;;;5082656;28;20047;-65